Página principal
METAR-TAF:

METAR-TAF

Aeroportos :

Florianópolis, Santa Catarina, Brasil

Aeroporto Internacional de Florianópolis

latitude: 27-40S, longitude: 048-33W, altura: 5 m

Observação actual do tempo

O boletim foi feito há 47 minutos, às 16:00 UTC
Vento 8 kt de es-sudeste
Temperatura 20°C
Humidade 43%
Pressão 1017 hPa
Visibilidade 10 km ou mais
sem nuvens abaixo de 1500 metros e sem cumulonimbus

METAR: SBFL 271600Z 11008KT CAVOK 20/07 Q1017

Hora: 13:47 (16:47 UTC)

Previsão

O boletim foi feito há 7 horas e 47 minutos, às 09:00 UTC
Previsão válida de 27 às 12 UTC a 28 às 12 UTC
Vento 7 kt de su-sudoeste
Visibilidade 10 km ou mais
sem nuvens abaixo de 1500 metros e sem cumulonimbus
Tornando-se
de 27 às 18 UTC a 27 às 20 UTC
Vento 6 kt de sul
Tornando-se
de 28 às 00 UTC a 28 às 02 UTC
Vento 7 kt de es-sudeste

TAF: SBFL 270900Z 2712/2812 21007KT CAVOK TX20/2718Z TN16/2809Z BECMG 2718/2720 18006KT BECMG 2800/2802 12007KT RMK PDJ

Observações e previsões do tempo de mais de 4000 aeroportos (mensagens METAR e TAF).

As estações disponíveis são os pontos amarelos e vermelhos sobre o mapa.

Mova o rato sobre o mapa para ver o nome da estação.

Depois clique no ponto para visualizar as observações e previsões meteorológicas.

Para alterar o mapa : clique nos botões verdes com uma cruz preta para aumentar o zoom; no botão verde com uma pitada de zoom; ou nas setas verdes para mapas adjacentes.


METAR-TAF: